• Join FlightAware (Why Join?)
  • Login
  • US Flag GB Flag 
19:01 EDT


 

Airport Tracker/Info


-or-


 

Live Flight TrackerFlight Track Log ✈ DAL1349 ✈ 27-Apr-2013 ✈ KCRW - KATL

Flight Track Log - Related Links

Times and Time Zones

All times are in EDT time to prevent confusion due to time zone crossing. See the DAL1349 flight status page for this flight to view local times or setup timezone preferences in your user account.

Time Position Orientation Groundspeed Altitude Reporting Facility
EDT Latitude Longitude Course Direction KTS MPH feet Rate Location/Type
07:10 38.3397 -81.6275 207° Southwest 154 177 3,000  Level Indianapolis Center
07:11 38.2803 -81.6622 205° Southwest 236 272 5,500 3,060 Climbing Indianapolis Center
07:12 38.0817 -81.7508 202° Southwest  Level FlightAware Approximate
07:12 38.2133 -81.7017 205° Southwest 264 304 9,300  Level Indianapolis Center
07:13 37.9836 -81.8018 204° Southwest  Level FlightAware Approximate
07:13 38.1350 -81.7458 204° Southwest 303 349 11,700  Level Indianapolis Center
07:14 37.8865 -81.8557 204° Southwest  Level FlightAware Approximate
07:14 38.0472 -81.7969 205° Southwest 345 397 15,000  Level Indianapolis Center
07:15 37.7914 -81.9152 207° Southwest  Level FlightAware Approximate
07:15 37.9594 -81.8467 204° Southwest 343 395 18,200  Level Indianapolis Center
07:16 37.8647 -81.9022 205° Southwest 375 432 19,700 1,740 Climbing Indianapolis Center
07:17 37.7594 -81.9608 204° Southwest 398 458 21,800 2,040 Climbing Indianapolis Center
07:18 37.6489 -82.0233 204° Southwest 436 502 23,900 2,100 Climbing Indianapolis Center
07:19 37.5394 -82.0861 204° Southwest 432 497 26,100 2,040 Climbing Indianapolis Center
07:20 37.4292 -82.1481 204° Southwest 432 497 28,100 1,740 Climbing Indianapolis Center
07:21 37.3186 -82.2111 204° Southwest 434 499 29,700 1,680 Climbing Indianapolis Center
07:21 37.2814 -82.2311 203° Southwest 438 504 30,300 1,920 Climbing Atlanta Center
07:22 37.1719 -82.2936 204° Southwest 438 504 32,200 1,620 Climbing Atlanta Center
07:23 37.0603 -82.3558 204° Southwest 438 504 33,600 1,440 Climbing Atlanta Center
07:24 36.9900 -82.3942 204° Southwest 424 488 34,800 1,320 Climbing Indianapolis Center
07:25 36.8833 -82.4531 204° Southwest 416 479 36,000 540 Climbing Indianapolis Center
07:26 36.7772 -82.5122 204° Southwest 413 475 36,000  Level Indianapolis Center
07:27 36.6697 -82.5717 204° Southwest 417 480 36,000  Level Indianapolis Center
07:28 36.5639 -82.6300 204° Southwest 414 476 36,000  Level Indianapolis Center
07:29 36.4561 -82.6883 204° Southwest 417 480 36,000  Level Indianapolis Center
07:30 36.3492 -82.7481 204° Southwest 418 481 36,000  Level Indianapolis Center
07:31 36.2414 -82.8069 204° Southwest 420 483 36,100  Climbing Indianapolis Center
07:32 36.1336 -82.8656 204° Southwest 420 483 36,000 -60 Descending Indianapolis Center
07:33 36.0097 -82.9322 204° Southwest 417 480 36,000 -60 Level Indianapolis Center
07:34 35.9017 -82.9908 204° Southwest 419 482 35,900 -420 Descending Indianapolis Center
07:35 35.7936 -83.0456 202° Southwest 418 481 35,200 -480 Descending Atlanta Center
07:36 35.6769 -83.0775 193° South 426 490 35,000 -600 Descending Atlanta Center
07:37 35.5667 -83.1222 198° South 431 496 34,100 -960 Descending Atlanta Center
07:38 35.4483 -83.1822 202° Southwest 424 488 33,100 -960 Descending Atlanta Center
07:39 35.3506 -83.2317 202° Southwest 432 497 32,200 -960 Descending Atlanta Center
07:40 35.2361 -83.2886 202° Southwest 437 503 31,200 -1,080 Descending Atlanta Center
07:41 35.1217 -83.3456 202° Southwest 442 509 30,100 -1,080 Descending Atlanta Center
07:42 35.0050 -83.3997 201° Southwest 447 514 29,100 2,940 Descending Atlanta Center
07:43 34.8864 -83.4614 203° Southwest 452 520 36,000 -960 Climbing Atlanta Center
07:44 34.7742 -83.5178 202° Southwest 452 520 27,200 -4,920 Descending Atlanta Center
07:45 34.6594 -83.5717 201° Southwest 452 520 26,200 -1,020 Descending Atlanta Center
07:46 34.5492 -83.6228 201° Southwest 438 504 25,200 -1,560 Descending Atlanta Center
07:47 34.4367 -83.6761 201° Southwest 438 504 23,100 -2,520 Descending Atlanta Center
07:48 34.3261 -83.7294 202° Southwest 427 491 20,200 -2,760 Descending Atlanta Center
07:49 34.2197 -83.7825 202° Southwest 427 491 17,600 -2,700 Descending Atlanta Center
07:50 34.1072 -83.8356 201° Southwest 411 473 14,800 -2,760 Descending Atlanta Center
07:51 34.0500 -83.8833 215° Southwest 377 434 13,300 -2,280 Descending Atlanta TRACON
07:52 33.9833 -83.9500 220° Southwest 345 397 11,200 -1,200 Descending Atlanta TRACON
07:53 33.9167 -84.0333 226° Southwest 330 380 11,000 -120 Descending Atlanta TRACON
07:54 33.8500 -84.1000 220° Southwest 331 381 11,000  Level Atlanta TRACON
07:54 33.8131 -84.1239 208° Southwest 339 390 11,000  Level Atlanta Center
07:55 33.7667 -84.1500 205° Southwest 334 384 11,000  Level Atlanta TRACON
07:56 33.7333 -84.2333 244° Southwest 296 341 11,000 -60 Level Atlanta TRACON
07:57 33.7333 -84.3167 270° West 237 273 10,900 -720 Descending Atlanta TRACON
07:58 33.7333 -84.4000 270° West 239 275 9,500 -1,500 Descending Atlanta TRACON
07:59 33.7333 -84.4833 270° West 236 272 7,900 -1,680 Descending Atlanta TRACON
08:00 33.7333 -84.5667 270° West 246 283 6,200 -1,740 Descending Atlanta TRACON
08:01 33.7167 -84.6333 253° West 253 291 4,500 -1,200 Descending Atlanta TRACON
08:02 33.6667 -84.6167 164° South 208 239 3,900 -600 Descending Atlanta TRACON